Coral Harbour Airport
CYZS : now visible

Airfield :











YOU CAN JOIN US ON...

 
LOGIN :

Register | Disclaimer

   EN    FR    IT 

 









Legend :    VFR   Marginal VFR   IFR   Intensive IFR   Very Intensive IFR
Visi :
Ceiling :
>= 8 km
>= 3000ft
5 to 8 km
1000 to 3000 ft
1500m to 5 km
500 to 1000 ft
800 to 1500m
200 to 500 ft
< 800m
< 200 ft
Symbols :   Thunderstorms  Fog  Heavy snow  Heavy precipitations  Wind > 20 kt






- Airport Elevation : 210 ft
- IATA code : YZS


CYZS - Coral Harbour

CURRENT METAR :
  • 170600Z 02029KT 3/4SM -SN SCT030 OVC080 M23/M25 A2935 RMK BLSN2SC4AS2 SLP951

EXPIRED METARs :
  • 170500Z 02026KT 3/4SM -SN BLSN SCT030 OVC230 M22/M24 A2934 RMK BLSN1SC3CS4 SLP947
  • 170450Z 02025G31KT 3/4SM -SN BLSN SCT030 OVC230 M22/M24 A2934 RMK BLSN1SC2CS5 SLP946

TAF TAF CYZS
Valid from the 17 at 07:00 until the 17 at 19:00 UTC


170640Z 1707/1719 02025G35KT 3/4SM -SN BLSN VV015
TEMPO 1707/1712 2SM BLSN SCT015 OVC080
FM171200 02022KT 2SM -SN BLSN OVC015
TEMPO 1712/1715 6SM -SN BLSN SCT015 BKN080
FM171500 02020G30KT P6SM SCT015 BKN100
TEMPO 1715/1719 3SM -SN BLSN BKN015 OVC080 RMK NXT FCST BY 171300Z
CZEG FIR / North America



MET'MAP, your aeronautical weather chart ! - Copyright ORBIFLY December 2007 - Disclaimer

ORBIFLY MET'MAP TEAM :

Programming & Development : Alexandra Zaïnal
Concept & original design : Baudouin d'Aumeries
Assistance for programming : Marc-Olivier Méhu
Technical & hardware support : Manuel Goepfert

Contact : metmap@orbifly.com




SOURCES & CREDITS :

   NOAA       Earth
Advisory